Trinidad, Cuba
Current Conditions -  °F | °C
As of 4:56 PM on Tuesday 21 Oct 2014 (Local Time) from MUSC Reporting Station
Thunderstorm Thunderstorm  
Wind Chill: 81°   Ceiling: 2000
Heat Index: 85°   Visibility: 1.8mi
Dew Point: 73°   Wind: 3mph
Humidity: 79%   Direction: NA
Pressure: 29.88"   Gusts: NA
Location:  21.8°N, 79.98°W
Report Text: MUSC 212056Z VRB03KT 3000 TSRA SCT015CB BKN020 27/23 Q1012
Loading
Personal Weather Stations






























Interactive Weather Map
Tropical Storm Tracking
New forecast layout! Learn more

10-Day Weather Forecast

Advertisements
Track Severe Weather on mobile